AirNav   Air Wisconsin pilot careers
 
 1579 users online  

23FL Gyro Town USA Airport
Wimauma, Florida, USA

GOING TO WIMAUMA?


FAA INFORMATION EFFECTIVE 12 OCTOBER 2017

Location

FAA Identifier: 23FL
Lat/Long: 27-41-04.0000N / 082-14-39.0000W
27-41.066667N / 082-14.650000W
27.6844444 / -82.2441667
(estimated)
Elevation: 65 ft. / 20 m (estimated)
From city: 5 miles W of WIMAUMA, FL
Time zone: UTC -4 (UTC -5 during Standard Time)
Zip code: 33547

Airport Operations

Airport use: Private use. Permission required prior to landing
Activation date: 03/2004
Control tower: no
ARTCC: MIAMI CENTER
FSS: SAINT PETERSBURG FLIGHT SERVICE STATION
Attendance: UNATNDD
Segmented circle: no

Airport Communications

WX AWOS-3 at TPF (18 nm NW): 118.925 (813-251-6824)
WX AWOS-3 at PCM (19 nm N): 120.025 (813-764-8259)

Nearby radio navigation aids

VOR radial/distance  VOR name  Freq  Var
LALr213/21.8LAKELAND VORTAC116.0001E
SRQr051/23.8SARASOTA VOR/DME117.0005W
PIEr125/26.9ST PETERSBURG VORTAC116.4005W

Airport Services

Runway Information

Runway 9/27

Dimensions: 2188 x 100 ft. / 667 x 30 m
Surface: turf
RUNWAY 9  RUNWAY 27
Traffic pattern: leftleft

Airport Ownership and Management from official FAA records

Ownership: Privately-owned
Owner: ERNEST BOYETTE
19242 GRANGE HALL LP
WIMAUMA, FL 33598
Phone 813-634-3370
Manager: ERNEST BOYETTE
19242 GRANGE HALL LP
WIMAUMA, FL 33598
Phone 813-634-3370

Instrument Procedures

There are no published instrument procedures at 23FL.

Some nearby airports with instrument procedures:

KTPF - Peter O Knight Airport (18 nm NW)
KMCF - MacDill Air Force Base (18 nm NW)
KPCM - Plant City Airport (19 nm N)
KVDF - Tampa Executive Airport (20 nm N)
KSPG - Albert Whitted Airport (21 nm W)
 
Loc | Ops | Rwys | IFR | FBO | Links
Com | Nav | Svcs | Stats | Notes

Reliance Aviation
AirBoss

 
Area around 23FL (Gyro Town USA Airport)
 
Road maps at: MapQuest Bing Google
 
Aerial photo
No photo
 
Sectional chart

 
Airport distance calculator
Flying to Gyro Town USA Airport? Find the distance to fly.

From to 23FL

Sunrise and sunset
Times for 18-Oct-2017
 Local
(UTC-4)
 Zulu
(UTC)
Morning civil twilight07:0811:08
Sunrise07:3211:32
Sunset18:5622:56
Evening civil twilight19:2023:20

Current date and time
Zulu (UTC)  18-Oct-2017 14:54:27
Local (UTC-4)  18-Oct-2017 10:54:27
 
METAR
KMCF 
18nm NW 
181358Z 04008G15KT 10SM FEW006 FEW015 SCT200 22/20 A3011 RMK AO2A SLP196 WND DATA ESTMD AND SLP/ALTSG ESTMD $
KTPF 
18nm NW 
181435Z AUTO 04011KT 10SM SCT011 OVC070 23/21 A3012 RMK AO2
KPCM 
19nm N 
181435Z AUTO 06008KT 10SM OVC013 24/21 A3014 RMK AO2
KVDF 
21nm N 
181435Z AUTO 04004KT 10SM OVC011 24/22 A3013 RMK AO2
KLAL 
21nm NE 
181354Z 03008KT 10SM BKN011 OVC075 23/22 A3012
KSPG 
21nm W 
181353Z 06014KT 10SM CLR 22/22 A3009 RMK AO2 SLP190 T02220217
KTPA 
23nm NW 
181353Z 03008KT 10SM SCT012 BKN065 BKN250 24/20 A3012 RMK AO2 SLP198 T02390200 $
KSRQ 
24nm SW 
181353Z AUTO 06008KT 10SM FEW012 24/21 A3008 RMK AO2 SLP184 T02390211
KPIE 
27nm NW 
181353Z 05010KT 10SM FEW010 23/21 A3011 RMK AO2 SLP195 T02330206
KBOW 
29nm NE 
181350Z COR 04009KT 10SM BKN012 24/21 A3011
TAF
KMCF 
18nm NW 
181335Z 1813/1914 04009KT 9999 SCT006 QNH3008INS BECMG 1814/1815 04012G20KT 9999 SCT030 QNH3008INS BECMG 1900/1901 04009KT 9999 SCT020 QNH3008INS TX28/1821Z TN21/1911Z
KLAL 
21nm NE 
181329Z 1813/1912 03009KT P6SM SCT010 OVC050 TEMPO 1813/1814 BKN010 FM181400 05010G15KT P6SM SCT020 BKN100 FM190200 04007KT P6SM SCT040 SCT250 FM190600 03006KT P6SM SCT010 SCT250
NOTAMs
Click for the latest NOTAMs
NOTAMs are issued by the DoD/FAA and will open in a separate window not controlled by AirNav.

 

 
 

Would you like to see your business listed on this page?

 If your business provides an interesting product or service to pilots, flight crews, aircraft, or users of the Gyro Town USA Airport, you should consider listing it here.  To start the listing process, click on the button below
 
Add a business
 

Other Pages about Gyro Town USA Airport

Update a link
 
Copyright © AirNav, LLC. All rights reserved. Privacy Policy  Contact